sensor_id;sensor_type;location;lat;lon;timestamp;temperature;humidity
47521;DHT22;32291;52.010;4.446;2022-07-22T00:00:35;16.80;99.90
47521;DHT22;32291;52.010;4.446;2022-07-22T00:01:37;16.90;99.90
47521;DHT22;32291;52.010;4.446;2022-07-22T00:02:39;16.90;99.90
47521;DHT22;32291;52.010;4.446;2022-07-22T00:03:41;16.90;99.90
47521;DHT22;32291;52.010;4.446;2022-07-22T00:04:43;17.00;99.90
47521;DHT22;32291;52.010;4.446;2022-07-22T00:05:46;16.90;99.90
47521;DHT22;32291;52.010;4.446;2022-07-22T00:06:48;16.90;99.90
47521;DHT22;32291;52.010;4.446;2022-07-22T00:07:53;16.90;99.90
47521;DHT22;32291;52.010;4.446;2022-07-22T00:08:55;17.00;99.90
47521;DHT22;32291;52.010;4.446;2022-07-22T00:09:58;16.90;99.90
47521;DHT22;32291;52.010;4.446;2022-07-22T00:11:00;16.90;99.90
47521;DHT22;32291;52.010;4.446;2022-07-22T00:12:02;16.90;99.90
47521;DHT22;32291;52.010;4.446;2022-07-22T00:13:05;16.90;99.90
47521;DHT22;32291;52.010;4.446;2022-07-22T00:14:07;16.90;99.90
47521;DHT22;32291;52.010;4.446;2022-07-22T00:15:09;16.90;99.90
47521;DHT22;32291;52.010;4.446;2022-07-22T00:16:12;16.90;99.90
47521;DHT22;32291;52.010;4.446;2022-07-22T00:17:14;16.90;99.90
47521;DHT22;32291;52.010;4.446;2022-07-22T00:18:16;16.90;99.90
47521;DHT22;32291;52.010;4.446;2022-07-22T00:19:18;17.10;99.90
47521;DHT22;32291;52.010;4.446;2022-07-22T00:20:20;16.90;99.90
47521;DHT22;32291;52.010;4.446;2022-07-22T00:21:22;16.90;99.90
47521;DHT22;32291;52.010;4.446;2022-07-22T00:22:25;16.90;99.90
47521;DHT22;32291;52.010;4.446;2022-07-22T00:23:27;16.90;99.90
47521;DHT22;32291;52.010;4.446;2022-07-22T00:24:29;16.90;99.90
47521;DHT22;32291;52.010;4.446;2022-07-22T00:25:31;16.90;99.90
47521;DHT22;32291;52.010;4.446;2022-07-22T00:26:33;16.90;99.90
47521;DHT22;32291;52.010;4.446;2022-07-22T00:27:35;17.30;99.90
47521;DHT22;32291;52.010;4.446;2022-07-22T00:28:37;16.90;99.90
47521;DHT22;32291;52.010;4.446;2022-07-22T00:29:39;16.90;99.90
47521;DHT22;32291;52.010;4.446;2022-07-22T00:30:41;16.90;99.90
47521;DHT22;32291;52.010;4.446;2022-07-22T00:31:43;16.90;99.90
47521;DHT22;32291;52.010;4.446;2022-07-22T00:32:45;16.90;99.90
47521;DHT22;32291;52.010;4.446;2022-07-22T00:33:47;16.90;99.90
47521;DHT22;32291;52.010;4.446;2022-07-22T00:34:50;16.90;99.90
47521;DHT22;32291;52.010;4.446;2022-07-22T00:35:52;16.90;99.90
47521;DHT22;32291;52.010;4.446;2022-07-22T00:36:54;16.90;99.90
47521;DHT22;32291;52.010;4.446;2022-07-22T00:37:55;16.90;99.90
47521;DHT22;32291;52.010;4.446;2022-07-22T00:38:57;16.90;99.90
47521;DHT22;32291;52.010;4.446;2022-07-22T00:40:00;16.90;99.90
47521;DHT22;32291;52.010;4.446;2022-07-22T00:41:03;16.90;99.90
47521;DHT22;32291;52.010;4.446;2022-07-22T00:42:05;16.90;99.90
47521;DHT22;32291;52.010;4.446;2022-07-22T00:43:07;16.80;99.90
47521;DHT22;32291;52.010;4.446;2022-07-22T00:44:09;16.80;99.90
47521;DHT22;32291;52.010;4.446;2022-07-22T00:45:11;16.80;99.90
47521;DHT22;32291;52.010;4.446;2022-07-22T00:46:13;16.80;99.90
47521;DHT22;32291;52.010;4.446;2022-07-22T00:47:15;16.80;99.90
47521;DHT22;32291;52.010;4.446;2022-07-22T00:48:17;16.80;99.90
47521;DHT22;32291;52.010;4.446;2022-07-22T00:49:20;16.80;99.90
47521;DHT22;32291;52.010;4.446;2022-07-22T00:50:22;16.80;99.90
47521;DHT22;32291;52.010;4.446;2022-07-22T00:51:26;16.80;99.90
47521;DHT22;32291;52.010;4.446;2022-07-22T00:52:32;17.20;99.90
47521;DHT22;32291;52.010;4.446;2022-07-22T00:53:35;16.80;99.90
47521;DHT22;32291;52.010;4.446;2022-07-22T00:54:37;16.80;99.90
47521;DHT22;32291;52.010;4.446;2022-07-22T00:55:39;16.80;99.90
47521;DHT22;32291;52.010;4.446;2022-07-22T00:56:42;16.70;99.90
47521;DHT22;32291;52.010;4.446;2022-07-22T00:57:44;16.70;99.90
47521;DHT22;32291;52.010;4.446;2022-07-22T00:58:49;16.80;99.90
47521;DHT22;32291;52.010;4.446;2022-07-22T00:59:55;16.70;99.90
47521;DHT22;32291;52.010;4.446;2022-07-22T01:00:57;16.80;99.90
47521;DHT22;32291;52.010;4.446;2022-07-22T01:01:59;16.70;99.90
47521;DHT22;32291;52.010;4.446;2022-07-22T01:03:01;16.80;99.90
47521;DHT22;32291;52.010;4.446;2022-07-22T01:04:03;16.70;99.90
47521;DHT22;32291;52.010;4.446;2022-07-22T01:05:06;16.70;99.90
47521;DHT22;32291;52.010;4.446;2022-07-22T01:06:09;16.70;99.90
47521;DHT22;32291;52.010;4.446;2022-07-22T01:07:12;17.00;99.90
47521;DHT22;32291;52.010;4.446;2022-07-22T01:08:15;16.70;99.90
47521;DHT22;32291;52.010;4.446;2022-07-22T01:09:17;16.60;99.90
47521;DHT22;32291;52.010;4.446;2022-07-22T01:10:19;16.70;99.90
47521;DHT22;32291;52.010;4.446;2022-07-22T01:11:22;16.70;99.90
47521;DHT22;32291;52.010;4.446;2022-07-22T01:12:24;16.70;99.90
47521;DHT22;32291;52.010;4.446;2022-07-22T01:13:26;16.70;99.90
47521;DHT22;32291;52.010;4.446;2022-07-22T01:14:28;16.70;99.90
47521;DHT22;32291;52.010;4.446;2022-07-22T01:15:31;16.70;99.90
47521;DHT22;32291;52.010;4.446;2022-07-22T01:16:35;16.90;99.90
47521;DHT22;32291;52.010;4.446;2022-07-22T01:17:37;16.70;99.90
47521;DHT22;32291;52.010;4.446;2022-07-22T01:18:40;16.70;99.90
47521;DHT22;32291;52.010;4.446;2022-07-22T01:19:42;16.70;99.90
47521;DHT22;32291;52.010;4.446;2022-07-22T01:20:44;16.70;99.90
47521;DHT22;32291;52.010;4.446;2022-07-22T01:21:46;16.80;99.90
47521;DHT22;32291;52.010;4.446;2022-07-22T01:22:49;16.70;99.90
47521;DHT22;32291;52.010;4.446;2022-07-22T01:23:51;16.70;99.90
47521;DHT22;32291;52.010;4.446;2022-07-22T01:24:53;17.00;99.90
47521;DHT22;32291;52.010;4.446;2022-07-22T01:25:54;16.80;99.90
47521;DHT22;32291;52.010;4.446;2022-07-22T01:26:56;16.70;99.90
47521;DHT22;32291;52.010;4.446;2022-07-22T01:27:59;16.70;99.90
47521;DHT22;32291;52.010;4.446;2022-07-22T01:29:02;16.70;99.90
47521;DHT22;32291;52.010;4.446;2022-07-22T01:30:05;16.70;99.90
47521;DHT22;32291;52.010;4.446;2022-07-22T01:31:09;16.70;99.90
47521;DHT22;32291;52.010;4.446;2022-07-22T01:32:11;16.70;99.90
47521;DHT22;32291;52.010;4.446;2022-07-22T01:33:13;16.70;99.90
47521;DHT22;32291;52.010;4.446;2022-07-22T01:34:15;16.70;99.90
47521;DHT22;32291;52.010;4.446;2022-07-22T01:35:17;16.70;99.90
47521;DHT22;32291;52.010;4.446;2022-07-22T01:36:19;16.60;99.90
47521;DHT22;32291;52.010;4.446;2022-07-22T01:37:22;16.70;99.90
47521;DHT22;32291;52.010;4.446;2022-07-22T01:38:25;16.60;99.90
47521;DHT22;32291;52.010;4.446;2022-07-22T01:39:27;16.80;99.90
47521;DHT22;32291;52.010;4.446;2022-07-22T01:40:29;16.80;99.90
47521;DHT22;32291;52.010;4.446;2022-07-22T01:41:32;16.60;99.90
47521;DHT22;32291;52.010;4.446;2022-07-22T01:42:34;16.70;99.90
47521;DHT22;32291;52.010;4.446;2022-07-22T01:43:37;16.70;99.90
47521;DHT22;32291;52.010;4.446;2022-07-22T01:44:40;16.70;99.90
47521;DHT22;32291;52.010;4.446;2022-07-22T01:45:43;16.70;99.90
47521;DHT22;32291;52.010;4.446;2022-07-22T01:46:47;16.70;99.90
47521;DHT22;32291;52.010;4.446;2022-07-22T01:47:50;16.70;99.90
47521;DHT22;32291;52.010;4.446;2022-07-22T01:48:52;16.70;99.90
47521;DHT22;32291;52.010;4.446;2022-07-22T01:49:54;16.80;99.90
47521;DHT22;32291;52.010;4.446;2022-07-22T01:50:56;16.90;99.90
47521;DHT22;32291;52.010;4.446;2022-07-22T01:51:59;16.70;99.90
47521;DHT22;32291;52.010;4.446;2022-07-22T01:53:02;17.10;99.90
47521;DHT22;32291;52.010;4.446;2022-07-22T01:54:04;17.10;99.90
47521;DHT22;32291;52.010;4.446;2022-07-22T01:55:07;16.70;99.90
47521;DHT22;32291;52.010;4.446;2022-07-22T01:56:11;16.70;99.90
47521;DHT22;32291;52.010;4.446;2022-07-22T01:57:12;16.70;99.90
47521;DHT22;32291;52.010;4.446;2022-07-22T01:58:15;16.70;99.90
47521;DHT22;32291;52.010;4.446;2022-07-22T01:59:17;16.70;99.90
47521;DHT22;32291;52.010;4.446;2022-07-22T02:00:19;16.70;99.90
47521;DHT22;32291;52.010;4.446;2022-07-22T02:01:21;16.70;99.90
47521;DHT22;32291;52.010;4.446;2022-07-22T02:02:23;16.60;99.90
47521;DHT22;32291;52.010;4.446;2022-07-22T02:03:25;16.70;99.90
47521;DHT22;32291;52.010;4.446;2022-07-22T02:04:27;16.70;99.90
47521;DHT22;32291;52.010;4.446;2022-07-22T02:05:29;16.70;99.90
47521;DHT22;32291;52.010;4.446;2022-07-22T02:06:31;16.70;99.90
47521;DHT22;32291;52.010;4.446;2022-07-22T02:07:33;17.10;99.90
47521;DHT22;32291;52.010;4.446;2022-07-22T02:08:35;16.70;99.90
47521;DHT22;32291;52.010;4.446;2022-07-22T02:09:37;16.70;99.90
47521;DHT22;32291;52.010;4.446;2022-07-22T02:10:40;16.70;99.90
47521;DHT22;32291;52.010;4.446;2022-07-22T02:11:42;16.70;99.90
47521;DHT22;32291;52.010;4.446;2022-07-22T02:12:44;16.70;99.90
47521;DHT22;32291;52.010;4.446;2022-07-22T02:13:46;16.70;99.90
47521;DHT22;32291;52.010;4.446;2022-07-22T02:14:48;16.70;99.90
47521;DHT22;32291;52.010;4.446;2022-07-22T02:15:50;16.70;99.90
47521;DHT22;32291;52.010;4.446;2022-07-22T02:16:53;16.70;99.90
47521;DHT22;32291;52.010;4.446;2022-07-22T02:17:56;16.70;99.90
47521;DHT22;32291;52.010;4.446;2022-07-22T02:18:58;16.70;99.90
47521;DHT22;32291;52.010;4.446;2022-07-22T02:20:00;17.00;99.90
47521;DHT22;32291;52.010;4.446;2022-07-22T02:21:05;16.70;99.90
47521;DHT22;32291;52.010;4.446;2022-07-22T02:22:08;16.70;99.90
47521;DHT22;32291;52.010;4.446;2022-07-22T02:23:11;16.70;99.90
47521;DHT22;32291;52.010;4.446;2022-07-22T02:24:13;16.70;99.90
47521;DHT22;32291;52.010;4.446;2022-07-22T02:25:16;16.70;99.90
47521;DHT22;32291;52.010;4.446;2022-07-22T02:26:17;16.70;99.90
47521;DHT22;32291;52.010;4.446;2022-07-22T02:27:19;16.70;99.90
47521;DHT22;32291;52.010;4.446;2022-07-22T02:28:21;16.60;99.90
47521;DHT22;32291;52.010;4.446;2022-07-22T02:29:23;16.60;99.90
47521;DHT22;32291;52.010;4.446;2022-07-22T02:30:26;16.60;99.90
47521;DHT22;32291;52.010;4.446;2022-07-22T02:31:28;16.60;99.90
47521;DHT22;32291;52.010;4.446;2022-07-22T02:32:31;16.70;99.90
47521;DHT22;32291;52.010;4.446;2022-07-22T02:33:33;16.60;99.90
47521;DHT22;32291;52.010;4.446;2022-07-22T02:34:35;16.60;99.90
47521;DHT22;32291;52.010;4.446;2022-07-22T02:35:37;16.90;99.90
47521;DHT22;32291;52.010;4.446;2022-07-22T02:36:39;16.60;99.90
47521;DHT22;32291;52.010;4.446;2022-07-22T02:37:41;16.60;99.90
47521;DHT22;32291;52.010;4.446;2022-07-22T02:38:44;16.60;99.90
47521;DHT22;32291;52.010;4.446;2022-07-22T02:39:46;16.60;99.90
47521;DHT22;32291;52.010;4.446;2022-07-22T02:40:48;16.60;99.90
47521;DHT22;32291;52.010;4.446;2022-07-22T02:41:50;16.80;99.90
47521;DHT22;32291;52.010;4.446;2022-07-22T02:42:52;16.60;99.90
47521;DHT22;32291;52.010;4.446;2022-07-22T02:43:54;16.60;99.90
47521;DHT22;32291;52.010;4.446;2022-07-22T02:44:56;16.60;99.90
47521;DHT22;32291;52.010;4.446;2022-07-22T02:45:58;16.60;99.90
47521;DHT22;32291;52.010;4.446;2022-07-22T02:47:00;16.60;99.90
47521;DHT22;32291;52.010;4.446;2022-07-22T02:48:03;15.90;99.90
47521;DHT22;32291;52.010;4.446;2022-07-22T02:49:05;16.60;99.90
47521;DHT22;32291;52.010;4.446;2022-07-22T02:50:08;16.60;99.90
47521;DHT22;32291;52.010;4.446;2022-07-22T02:51:10;16.60;99.90
47521;DHT22;32291;52.010;4.446;2022-07-22T02:52:12;16.60;99.90
47521;DHT22;32291;52.010;4.446;2022-07-22T02:53:14;16.80;99.90
47521;DHT22;32291;52.010;4.446;2022-07-22T02:54:16;16.60;99.90
47521;DHT22;32291;52.010;4.446;2022-07-22T02:55:19;16.60;99.90
47521;DHT22;32291;52.010;4.446;2022-07-22T02:56:21;16.70;99.90
47521;DHT22;32291;52.010;4.446;2022-07-22T02:57:23;16.60;99.90
47521;DHT22;32291;52.010;4.446;2022-07-22T02:58:26;17.10;99.90
47521;DHT22;32291;52.010;4.446;2022-07-22T02:59:28;16.70;99.90
47521;DHT22;32291;52.010;4.446;2022-07-22T03:00:30;16.60;99.90
47521;DHT22;32291;52.010;4.446;2022-07-22T03:01:32;16.60;99.90
47521;DHT22;32291;52.010;4.446;2022-07-22T03:02:34;16.70;99.90
47521;DHT22;32291;52.010;4.446;2022-07-22T03:03:36;16.60;99.90
47521;DHT22;32291;52.010;4.446;2022-07-22T03:04:38;16.60;99.90
47521;DHT22;32291;52.010;4.446;2022-07-22T03:05:40;16.60;99.90
47521;DHT22;32291;52.010;4.446;2022-07-22T03:06:43;16.60;99.90
47521;DHT22;32291;52.010;4.446;2022-07-22T03:07:45;16.60;99.90
47521;DHT22;32291;52.010;4.446;2022-07-22T03:08:47;16.60;99.90
47521;DHT22;32291;52.010;4.446;2022-07-22T03:09:49;16.60;99.90
47521;DHT22;32291;52.010;4.446;2022-07-22T03:10:51;16.60;99.90
47521;DHT22;32291;52.010;4.446;2022-07-22T03:11:55;16.60;99.90
47521;DHT22;32291;52.010;4.446;2022-07-22T03:12:57;16.60;99.90
47521;DHT22;32291;52.010;4.446;2022-07-22T03:13:59;16.60;99.90
47521;DHT22;32291;52.010;4.446;2022-07-22T03:15:01;16.60;99.90
47521;DHT22;32291;52.010;4.446;2022-07-22T03:16:03;16.60;99.90
47521;DHT22;32291;52.010;4.446;2022-07-22T03:17:05;16.60;99.90
47521;DHT22;32291;52.010;4.446;2022-07-22T03:18:07;16.60;99.90
47521;DHT22;32291;52.010;4.446;2022-07-22T03:19:09;16.60;99.90
47521;DHT22;32291;52.010;4.446;2022-07-22T03:20:11;16.60;99.90
47521;DHT22;32291;52.010;4.446;2022-07-22T03:21:14;16.60;99.90
47521;DHT22;32291;52.010;4.446;2022-07-22T03:22:16;16.60;99.90
47521;DHT22;32291;52.010;4.446;2022-07-22T03:23:18;16.60;99.90
47521;DHT22;32291;52.010;4.446;2022-07-22T03:24:20;16.60;99.90
47521;DHT22;32291;52.010;4.446;2022-07-22T03:25:22;16.70;99.90
47521;DHT22;32291;52.010;4.446;2022-07-22T03:26:25;16.60;99.90
47521;DHT22;32291;52.010;4.446;2022-07-22T03:27:27;16.90;99.90
47521;DHT22;32291;52.010;4.446;2022-07-22T03:28:30;16.50;99.90
47521;DHT22;32291;52.010;4.446;2022-07-22T03:29:32;16.60;99.90
47521;DHT22;32291;52.010;4.446;2022-07-22T03:30:33;16.60;99.90
47521;DHT22;32291;52.010;4.446;2022-07-22T03:31:35;16.70;99.90
47521;DHT22;32291;52.010;4.446;2022-07-22T03:32:37;16.50;99.90
47521;DHT22;32291;52.010;4.446;2022-07-22T03:33:39;16.50;99.90
47521;DHT22;32291;52.010;4.446;2022-07-22T03:34:42;16.60;99.90
47521;DHT22;32291;52.010;4.446;2022-07-22T03:35:44;16.60;99.90
47521;DHT22;32291;52.010;4.446;2022-07-22T03:36:46;16.50;99.90
47521;DHT22;32291;52.010;4.446;2022-07-22T03:37:48;16.50;99.90
47521;DHT22;32291;52.010;4.446;2022-07-22T03:38:51;16.50;99.90
47521;DHT22;32291;52.010;4.446;2022-07-22T03:39:52;16.50;99.90
47521;DHT22;32291;52.010;4.446;2022-07-22T03:40:55;16.50;99.90
47521;DHT22;32291;52.010;4.446;2022-07-22T03:41:57;17.40;99.90
47521;DHT22;32291;52.010;4.446;2022-07-22T03:42:58;16.50;99.90
47521;DHT22;32291;52.010;4.446;2022-07-22T03:44:00;16.40;99.90
47521;DHT22;32291;52.010;4.446;2022-07-22T03:45:02;16.40;99.90
47521;DHT22;32291;52.010;4.446;2022-07-22T03:46:05;16.50;99.90
47521;DHT22;32291;52.010;4.446;2022-07-22T03:47:07;16.40;99.90
47521;DHT22;32291;52.010;4.446;2022-07-22T03:48:09;16.40;99.90
47521;DHT22;32291;52.010;4.446;2022-07-22T03:49:11;16.50;99.90
47521;DHT22;32291;52.010;4.446;2022-07-22T03:50:13;16.40;99.90
47521;DHT22;32291;52.010;4.446;2022-07-22T03:51:15;16.40;99.90
47521;DHT22;32291;52.010;4.446;2022-07-22T03:52:17;16.50;99.90
47521;DHT22;32291;52.010;4.446;2022-07-22T03:53:20;16.40;99.90
47521;DHT22;32291;52.010;4.446;2022-07-22T03:54:22;16.50;99.90
47521;DHT22;32291;52.010;4.446;2022-07-22T03:55:24;16.40;99.90
47521;DHT22;32291;52.010;4.446;2022-07-22T03:56:27;16.40;99.90
47521;DHT22;32291;52.010;4.446;2022-07-22T03:57:29;16.40;99.90
47521;DHT22;32291;52.010;4.446;2022-07-22T03:58:31;16.40;99.90
47521;DHT22;32291;52.010;4.446;2022-07-22T03:59:33;16.70;99.90
47521;DHT22;32291;52.010;4.446;2022-07-22T04:00:35;16.40;99.90
47521;DHT22;32291;52.010;4.446;2022-07-22T04:01:37;16.50;99.90
47521;DHT22;32291;52.010;4.446;2022-07-22T04:02:39;16.50;99.90
47521;DHT22;32291;52.010;4.446;2022-07-22T04:03:41;16.40;99.90
47521;DHT22;32291;52.010;4.446;2022-07-22T04:04:43;16.40;99.90
47521;DHT22;32291;52.010;4.446;2022-07-22T04:05:45;16.50;99.90
47521;DHT22;32291;52.010;4.446;2022-07-22T04:06:48;16.50;99.90
47521;DHT22;32291;52.010;4.446;2022-07-22T04:07:52;16.50;99.90
47521;DHT22;32291;52.010;4.446;2022-07-22T04:08:54;16.50;99.90
47521;DHT22;32291;52.010;4.446;2022-07-22T04:09:56;16.50;99.90
47521;DHT22;32291;52.010;4.446;2022-07-22T04:11:06;16.40;99.90
47521;DHT22;32291;52.010;4.446;2022-07-22T04:12:08;16.50;99.90
47521;DHT22;32291;52.010;4.446;2022-07-22T04:13:11;16.50;99.90
47521;DHT22;32291;52.010;4.446;2022-07-22T04:14:13;16.50;99.90
47521;DHT22;32291;52.010;4.446;2022-07-22T04:15:15;16.50;99.90
47521;DHT22;32291;52.010;4.446;2022-07-22T04:16:17;16.50;99.90
47521;DHT22;32291;52.010;4.446;2022-07-22T04:17:19;16.50;99.90
47521;DHT22;32291;52.010;4.446;2022-07-22T04:18:21;16.50;99.90
47521;DHT22;32291;52.010;4.446;2022-07-22T04:19:24;16.60;99.90
47521;DHT22;32291;52.010;4.446;2022-07-22T04:20:26;16.60;99.90
47521;DHT22;32291;52.010;4.446;2022-07-22T04:21:28;16.50;99.90
47521;DHT22;32291;52.010;4.446;2022-07-22T04:22:30;16.50;99.90
47521;DHT22;32291;52.010;4.446;2022-07-22T04:23:32;16.60;99.90
47521;DHT22;32291;52.010;4.446;2022-07-22T04:24:34;16.60;99.90
47521;DHT22;32291;52.010;4.446;2022-07-22T04:25:36;16.60;99.90
47521;DHT22;32291;52.010;4.446;2022-07-22T04:26:38;16.60;99.90
47521;DHT22;32291;52.010;4.446;2022-07-22T04:27:40;16.60;99.90
47521;DHT22;32291;52.010;4.446;2022-07-22T04:28:42;16.60;99.90
47521;DHT22;32291;52.010;4.446;2022-07-22T04:29:44;16.60;99.90
47521;DHT22;32291;52.010;4.446;2022-07-22T04:30:46;16.60;99.90
47521;DHT22;32291;52.010;4.446;2022-07-22T04:31:48;16.70;99.90
47521;DHT22;32291;52.010;4.446;2022-07-22T04:32:50;17.10;99.90
47521;DHT22;32291;52.010;4.446;2022-07-22T04:33:53;16.70;99.90
47521;DHT22;32291;52.010;4.446;2022-07-22T04:34:56;16.70;99.90
47521;DHT22;32291;52.010;4.446;2022-07-22T04:35:58;16.70;99.90
47521;DHT22;32291;52.010;4.446;2022-07-22T04:37:00;16.70;99.90
47521;DHT22;32291;52.010;4.446;2022-07-22T04:38:03;16.70;99.90
47521;DHT22;32291;52.010;4.446;2022-07-22T04:39:05;16.70;99.90
47521;DHT22;32291;52.010;4.446;2022-07-22T04:40:08;16.80;99.90
47521;DHT22;32291;52.010;4.446;2022-07-22T04:41:11;16.70;99.90
47521;DHT22;32291;52.010;4.446;2022-07-22T04:42:13;16.80;99.90
47521;DHT22;32291;52.010;4.446;2022-07-22T04:43:15;16.80;99.90
47521;DHT22;32291;52.010;4.446;2022-07-22T04:44:17;16.80;99.90
47521;DHT22;32291;52.010;4.446;2022-07-22T04:45:18;16.80;99.90
47521;DHT22;32291;52.010;4.446;2022-07-22T04:46:21;16.80;99.90
47521;DHT22;32291;52.010;4.446;2022-07-22T04:47:23;17.00;99.90
47521;DHT22;32291;52.010;4.446;2022-07-22T04:48:25;16.90;99.90
47521;DHT22;32291;52.010;4.446;2022-07-22T04:49:28;16.80;99.90
47521;DHT22;32291;52.010;4.446;2022-07-22T04:50:30;17.00;99.90
47521;DHT22;32291;52.010;4.446;2022-07-22T04:51:32;16.90;99.90
47521;DHT22;32291;52.010;4.446;2022-07-22T04:52:34;16.90;99.90
47521;DHT22;32291;52.010;4.446;2022-07-22T04:53:37;16.90;99.90
47521;DHT22;32291;52.010;4.446;2022-07-22T04:54:39;17.00;99.90
47521;DHT22;32291;52.010;4.446;2022-07-22T04:55:41;17.00;99.90
47521;DHT22;32291;52.010;4.446;2022-07-22T04:56:43;17.10;99.90
47521;DHT22;32291;52.010;4.446;2022-07-22T04:57:45;17.00;99.90
47521;DHT22;32291;52.010;4.446;2022-07-22T04:58:47;17.10;99.90
47521;DHT22;32291;52.010;4.446;2022-07-22T04:59:49;17.00;99.90
47521;DHT22;32291;52.010;4.446;2022-07-22T05:00:51;17.00;99.90
47521;DHT22;32291;52.010;4.446;2022-07-22T05:01:53;17.10;99.90
47521;DHT22;32291;52.010;4.446;2022-07-22T05:02:55;17.10;99.90
47521;DHT22;32291;52.010;4.446;2022-07-22T05:03:57;17.10;99.90
47521;DHT22;32291;52.010;4.446;2022-07-22T05:04:59;17.10;99.90
47521;DHT22;32291;52.010;4.446;2022-07-22T05:06:01;17.10;99.90
47521;DHT22;32291;52.010;4.446;2022-07-22T05:07:03;17.10;99.90
47521;DHT22;32291;52.010;4.446;2022-07-22T05:08:05;17.20;99.90
47521;DHT22;32291;52.010;4.446;2022-07-22T05:09:07;17.20;99.90
47521;DHT22;32291;52.010;4.446;2022-07-22T05:10:09;17.20;99.90
47521;DHT22;32291;52.010;4.446;2022-07-22T05:11:12;17.30;99.90
47521;DHT22;32291;52.010;4.446;2022-07-22T05:12:14;17.10;99.90
47521;DHT22;32291;52.010;4.446;2022-07-22T05:13:16;17.20;99.90
47521;DHT22;32291;52.010;4.446;2022-07-22T05:14:17;17.20;99.90
47521;DHT22;32291;52.010;4.446;2022-07-22T05:15:19;17.30;99.90
47521;DHT22;32291;52.010;4.446;2022-07-22T05:16:21;17.30;99.90
47521;DHT22;32291;52.010;4.446;2022-07-22T05:17:23;17.30;99.90
47521;DHT22;32291;52.010;4.446;2022-07-22T05:18:26;17.40;99.90
47521;DHT22;32291;52.010;4.446;2022-07-22T05:19:28;17.30;99.90
47521;DHT22;32291;52.010;4.446;2022-07-22T05:20:30;17.40;99.90
47521;DHT22;32291;52.010;4.446;2022-07-22T05:21:33;17.30;99.90
47521;DHT22;32291;52.010;4.446;2022-07-22T05:22:35;17.30;99.90
47521;DHT22;32291;52.010;4.446;2022-07-22T05:23:37;17.30;99.90
47521;DHT22;32291;52.010;4.446;2022-07-22T05:24:40;17.40;99.90
47521;DHT22;32291;52.010;4.446;2022-07-22T05:25:42;17.40;99.90
47521;DHT22;32291;52.010;4.446;2022-07-22T05:26:44;17.40;99.90
47521;DHT22;32291;52.010;4.446;2022-07-22T05:27:51;17.30;99.90
47521;DHT22;32291;52.010;4.446;2022-07-22T05:28:55;17.40;99.90
47521;DHT22;32291;52.010;4.446;2022-07-22T05:29:57;17.30;99.90
47521;DHT22;32291;52.010;4.446;2022-07-22T05:30:59;17.30;99.90
47521;DHT22;32291;52.010;4.446;2022-07-22T05:32:01;17.30;99.90
47521;DHT22;32291;52.010;4.446;2022-07-22T05:33:04;17.30;99.90
47521;DHT22;32291;52.010;4.446;2022-07-22T05:34:06;17.40;99.90
47521;DHT22;32291;52.010;4.446;2022-07-22T05:35:09;17.30;99.90
47521;DHT22;32291;52.010;4.446;2022-07-22T05:36:11;17.40;99.90
47521;DHT22;32291;52.010;4.446;2022-07-22T05:37:13;17.30;99.90
47521;DHT22;32291;52.010;4.446;2022-07-22T05:38:17;17.40;99.90
47521;DHT22;32291;52.010;4.446;2022-07-22T05:39:19;17.40;99.90
47521;DHT22;32291;52.010;4.446;2022-07-22T05:40:21;17.50;99.90
47521;DHT22;32291;52.010;4.446;2022-07-22T05:41:23;17.40;99.90
47521;DHT22;32291;52.010;4.446;2022-07-22T05:42:25;17.40;99.90
47521;DHT22;32291;52.010;4.446;2022-07-22T05:43:27;17.40;99.90
47521;DHT22;32291;52.010;4.446;2022-07-22T05:44:30;17.40;99.90
47521;DHT22;32291;52.010;4.446;2022-07-22T05:45:32;17.40;99.90
47521;DHT22;32291;52.010;4.446;2022-07-22T05:46:36;17.40;99.90
47521;DHT22;32291;52.010;4.446;2022-07-22T05:47:37;17.40;99.90
47521;DHT22;32291;52.010;4.446;2022-07-22T05:48:39;17.50;99.90
47521;DHT22;32291;52.010;4.446;2022-07-22T05:49:41;17.50;99.90
47521;DHT22;32291;52.010;4.446;2022-07-22T05:50:43;17.50;99.90
47521;DHT22;32291;52.010;4.446;2022-07-22T05:51:46;17.50;99.90
47521;DHT22;32291;52.010;4.446;2022-07-22T05:52:47;17.50;99.90
47521;DHT22;32291;52.010;4.446;2022-07-22T05:53:50;17.50;99.90
47521;DHT22;32291;52.010;4.446;2022-07-22T05:54:52;17.70;99.90
47521;DHT22;32291;52.010;4.446;2022-07-22T05:55:54;17.60;99.90
47521;DHT22;32291;52.010;4.446;2022-07-22T05:56:57;17.60;99.90
47521;DHT22;32291;52.010;4.446;2022-07-22T05:57:59;17.70;99.90
47521;DHT22;32291;52.010;4.446;2022-07-22T05:59:01;17.70;99.90
47521;DHT22;32291;52.010;4.446;2022-07-22T06:00:04;17.70;99.90
47521;DHT22;32291;52.010;4.446;2022-07-22T06:01:08;17.70;99.90
47521;DHT22;32291;52.010;4.446;2022-07-22T06:02:11;17.70;99.90
47521;DHT22;32291;52.010;4.446;2022-07-22T06:03:13;17.70;99.90
47521;DHT22;32291;52.010;4.446;2022-07-22T06:04:15;17.80;99.90
47521;DHT22;32291;52.010;4.446;2022-07-22T06:05:18;17.80;99.90
47521;DHT22;32291;52.010;4.446;2022-07-22T06:06:21;17.80;99.90
47521;DHT22;32291;52.010;4.446;2022-07-22T06:07:24;17.80;99.90
47521;DHT22;32291;52.010;4.446;2022-07-22T06:08:28;17.80;99.90
47521;DHT22;32291;52.010;4.446;2022-07-22T06:09:31;17.80;99.90
47521;DHT22;32291;52.010;4.446;2022-07-22T06:10:33;17.80;99.90
47521;DHT22;32291;52.010;4.446;2022-07-22T06:11:35;17.80;99.90
47521;DHT22;32291;52.010;4.446;2022-07-22T06:12:36;17.80;99.90
47521;DHT22;32291;52.010;4.446;2022-07-22T06:13:39;17.90;99.90
47521;DHT22;32291;52.010;4.446;2022-07-22T06:14:41;17.90;99.90
47521;DHT22;32291;52.010;4.446;2022-07-22T06:15:43;17.90;99.90
47521;DHT22;32291;52.010;4.446;2022-07-22T06:16:45;18.00;99.90
47521;DHT22;32291;52.010;4.446;2022-07-22T06:17:47;18.00;99.90
47521;DHT22;32291;52.010;4.446;2022-07-22T06:18:49;18.00;99.90
47521;DHT22;32291;52.010;4.446;2022-07-22T06:19:51;18.00;99.90
47521;DHT22;32291;52.010;4.446;2022-07-22T06:20:56;18.00;99.90
47521;DHT22;32291;52.010;4.446;2022-07-22T06:21:58;18.10;99.90
47521;DHT22;32291;52.010;4.446;2022-07-22T06:23:00;18.10;99.90
47521;DHT22;32291;52.010;4.446;2022-07-22T06:24:03;18.10;99.90
47521;DHT22;32291;52.010;4.446;2022-07-22T06:25:05;18.20;99.90
47521;DHT22;32291;52.010;4.446;2022-07-22T06:26:09;18.20;99.90
47521;DHT22;32291;52.010;4.446;2022-07-22T06:27:12;18.20;99.90
47521;DHT22;32291;52.010;4.446;2022-07-22T06:28:13;18.60;99.90
47521;DHT22;32291;52.010;4.446;2022-07-22T06:29:15;18.30;99.90
47521;DHT22;32291;52.010;4.446;2022-07-22T06:30:17;18.50;99.90
47521;DHT22;32291;52.010;4.446;2022-07-22T06:31:19;18.30;99.90
47521;DHT22;32291;52.010;4.446;2022-07-22T06:32:21;18.40;99.90
47521;DHT22;32291;52.010;4.446;2022-07-22T06:33:24;18.30;99.90